Flight Track Log - Related Links

Times and Time Zones

All times are in EDT time to prevent confusion due to time zone crossing. See the TSU361 flight status page for this flight to view local times or setup timezone preferences in your user account.

Time Position Orientation Groundspeed Altitude Reporting Facility
EDT Latitude Longitude Course Direction KTS MPH feet Rate Location/Type
Mon 08:17:45 AM 42.6672 -83.4069 93° East 181 208 1,600  Level Cleveland Center
Mon 08:18:39 AM 42.6647 -83.3447 148° Southeast 182 209 3,300 1,706 Climbing Cleveland Center
Mon 08:19:34 AM 42.6258 -83.3119 236° Southwest 210 242 4,700 1,707 Climbing Cleveland Center
Mon 08:20:35 AM 42.5931 -83.3783 242° Southwest 213 245 6,600 1,190 Climbing Cleveland Center
Mon 08:21:30 AM 42.5642 -83.4531 239° Southwest 260 299 7,000 197 Climbing Cleveland Center
Mon 08:22:37 AM 42.5197 -83.5553 239° Southwest 280 322 7,000  Level Cleveland Center
Mon 08:23:35 AM 42.4819 -83.6408 243° Southwest 275 316 7,000 814 Level Cleveland Center
Mon 08:24:35 AM 42.4483 -83.7292 248° West 264 304 8,600 1,400 Climbing Cleveland Center
Mon 08:25:35 AM 42.4300 -83.7903 242° Southwest 259 298 9,800 1,150 Climbing Cleveland Center
Mon 08:26:35 AM 42.3894 -83.8950 241° Southwest 277 319 10,900 600 Climbing Cleveland Center
Mon 08:27:35 AM 42.3492 -83.9942 241° Southwest 285 328 11,000 900 Climbing Cleveland Center
Mon 08:28:35 AM 42.3108 -84.0875 246° West 290 334 12,700 1,800 Climbing Cleveland Center
Mon 08:29:35 AM 42.2811 -84.1758 221° Southwest 277 319 14,600 1,682 Climbing Cleveland Center
Mon 08:30:47 AM 42.2333 -84.2319 203° Southwest 243 280 16,400 1,636 Climbing Cleveland Center
Mon 08:31:47 AM 42.1656 -84.2700 199° South 225 259 18,200 1,500 Climbing Cleveland Center
Mon 08:32:47 AM 42.1106 -84.2950 198° South 218 251 19,400 1,150 Climbing Cleveland Center
Mon 08:33:47 AM 42.0533 -84.3194 200° South 218 251 20,500 1,100 Climbing Cleveland Center
Mon 08:34:47 AM 41.9983 -84.3469 198° South 213 245 21,600 750 Climbing Cleveland Center
Mon 08:35:47 AM 41.9369 -84.3742 202° Southwest 220 253 22,000 200 Climbing Cleveland Center
Mon 08:36:47 AM 41.8689 -84.4119 201° Southwest 249 287 22,000  Level Cleveland Center
Mon 08:37:47 AM 41.7925 -84.4519 203° Southwest 271 312 22,000  Level Cleveland Center
Mon 08:38:47 AM 41.7203 -84.4922 207° Southwest 277 319 22,000  Level Cleveland Center
Mon 08:39:47 AM 41.6497 -84.5408 204° Southwest 277 319 22,000 -50 Level Cleveland Center
Mon 08:40:47 AM 41.5794 -84.5836 212° Southwest 282 325 21,900  Descending Cleveland Center
Mon 08:42:20 AM 41.4872 -84.6592 205° Southwest 276 318 22,000 39 Climbing Chicago Center
Mon 08:43:20 AM 41.4161 -84.7031 205° Southwest 281 323 22,000  Level Chicago Center
Mon 08:44:20 AM 41.3489 -84.7439 205° Southwest 281 323 22,000  Level Chicago Center
Mon 08:45:20 AM 41.2775 -84.7875 205° Southwest 281 323 22,000  Level Chicago Center
Mon 08:46:20 AM 41.2003 -84.8344 205° Southwest 276 318 22,000  Level Chicago Center
Mon 08:47:20 AM 41.1350 -84.8747 201° Southwest 276 318 22,000  Level Chicago Center
Mon 08:48:20 AM 41.0614 -84.9128 204° Southwest 276 318 22,000  Level Chicago Center
Mon 08:49:20 AM 40.9881 -84.9564 202° Southwest 285 328 22,000  Level Chicago Center
Mon 08:50:20 AM 40.9125 -84.9972 203° Southwest 290 334 22,000  Level Chicago Center
Mon 08:51:20 AM 40.8347 -85.0408 203° Southwest 295 339 22,000  Level Chicago Center
Mon 08:53:40 AM 40.6636 -85.1383 202° Southwest 281 323 22,000  Level Indianapolis Center
Mon 08:54:40 AM 40.5881 -85.1778 202° Southwest 287 330 22,000  Level Indianapolis Center
Mon 08:55:40 AM 40.5125 -85.2169 201° Southwest 293 337 22,000  Level Indianapolis Center
Mon 08:56:40 AM 40.4389 -85.2533 201° Southwest 293 337 22,000  Level Indianapolis Center
Mon 08:57:40 AM 40.3656 -85.2897 203° Southwest 287 330 22,000  Level Indianapolis Center
Mon 08:58:40 AM 40.2900 -85.3314 201° Southwest 292 336 22,000 -650 Level Indianapolis Center
Mon 08:59:40 AM 40.2228 -85.3650 203° Southwest 292 336 20,700 -1,600 Descending Indianapolis Center
Mon 09:00:40 AM 40.1469 -85.4064 202° Southwest 297 342 18,800 -2,050 Descending Indianapolis Center
Mon 09:01:40 AM 40.0733 -85.4453 205° Southwest 297 342 16,600 -2,300 Descending Indianapolis Center
Mon 09:02:40 AM 39.9997 -85.4892 204° Southwest 297 342 14,200 -1,350 Descending Indianapolis Center
Mon 09:03:40 AM 39.9283 -85.5306 203° Southwest 290 334 13,900 -900 Descending Indianapolis Center
Mon 09:04:40 AM 39.8525 -85.5717 205° Southwest 290 334 12,400 -1,800 Descending Indianapolis Center
Mon 09:05:40 AM 39.7725 -85.6208 204° Southwest 296 341 10,300 -2,150 Descending Indianapolis Center
Mon 09:06:40 AM 39.7008 -85.6619 203° Southwest 296 341 8,100 -2,150 Descending Indianapolis Center
Mon 09:07:40 AM 39.6314 -85.7003 203° Southwest 289 333 6,000 -2,050 Descending Indianapolis Center
Mon 09:08:40 AM 39.5617 -85.7386 201° Southwest 278 320 4,000 -1,050 Descending Indianapolis Center
Mon 09:09:40 AM 39.5008 -85.7689 199° South 266 306 3,900 -50 Descending Indianapolis Center
Mon 09:10:40 AM 39.4439 -85.7942 204° Southwest 231 266 3,900  Level Indianapolis Center
Mon 09:11:40 AM 39.3914 -85.8247 195° South 217 250 3,900 -150 Level Indianapolis Center
Mon 09:12:40 AM 39.3408 -85.8419 167° South 209 241 3,600 -600 Descending Indianapolis Center
Mon 09:13:40 AM 39.2892 -85.8267 218° Southwest 198 228 2,700 -839 Descending Indianapolis Center
Mon 09:15:46 AM 39.2500 -85.8667 270° West 117 135 1,000 -548 Descending Indianapolis TRACON
Mon 09:16:46 AM 39.2500 -85.8833 270° West 116 133 1,000  Level Indianapolis TRACON

Login

Don't have an account? Register now (free) for customized features, flight alerts, and more!